Edgeley, North Dakota
Current Conditions -  °F | °C
As of 7:56 AM on Thursday 30 Oct 2014 (Local Time) from KJMS Reporting Station
Broken Clouds Broken Clouds  
Wind Chill: 24°   Ceiling: 3700
Heat Index: 34°   Visibility: 10mi
Dew Point: 31°   Wind: 16mph
Humidity: 89%   Direction: 360°N
Pressure: 30.14"   Gusts: NA
Location:  46.36°N, 98.72°W
Report Text: KJMS 301256Z AUTO 36014KT 10SM BKN037 01/M01 A3014 RMK AO2 SLP222 T00111006
Loading
Personal Weather Stations






























Interactive Weather Map
Tropical Storm Tracking
New forecast layout! Learn more

10-Day Weather Forecast

Advertisements
Track Severe Weather on mobile